Time;durP1;ratioP1;P1;durP2;ratioP2;P2;SDS_P1;SDS_P2;PMS_P1;PMS_P2;Temp;Humidity;BMP_temperature;BMP_pressure;BME280_temperature;BME280_humidity;BME280_pressure;Samples;Min_cycle;Max_cycle;Signal;HPM_P1;HPM_P2
2022/08/09 00:02:11;;;;;;;4.20;3.80;;;16.60;99.90;;;;;;5049284;28;20963;-78
2022/08/09 00:04:38;;;;;;;6.93;4.40;;;16.60;99.90;;;;;;5037017;28;20318;-79
2022/08/09 00:07:06;;;;;;;5.95;3.88;;;16.60;99.90;;;;;;5050520;28;20620;-79
2022/08/09 00:09:33;;;;;;;8.23;4.30;;;16.60;99.90;;;;;;5041152;28;20368;-78
2022/08/09 00:12:00;;;;;;;5.43;3.58;;;16.50;99.90;;;;;;5046387;28;20205;-78
2022/08/09 00:14:27;;;;;;;3.97;3.47;;;16.50;99.90;;;;;;5051270;28;20220;-79
2022/08/09 00:16:55;;;;;;;5.10;3.38;;;16.60;99.90;;;;;;5045011;28;20202;-78
2022/08/09 00:19:23;;;;;;;4.60;3.60;;;16.40;99.90;;;;;;5063456;28;20205;-78
2022/08/09 00:21:50;;;;;;;6.13;3.60;;;16.40;99.90;;;;;;5059909;28;20220;-78
2022/08/09 00:24:18;;;;;;;7.78;4.53;;;16.40;99.90;;;;;;5043821;28;20291;-79
2022/08/09 00:26:45;;;;;;;9.52;3.63;;;16.40;99.90;;;;;;5046660;28;20228;-79
2022/08/09 00:29:12;;;;;;;5.55;3.95;;;16.40;99.90;;;;;;5054853;28;20291;-78
2022/08/09 00:31:39;;;;;;;4.47;3.72;;;16.40;99.90;;;;;;5047821;28;20231;-79
2022/08/09 00:34:06;;;;;;;4.03;3.53;;;16.30;99.90;;;;;;5053820;28;20221;-78
2022/08/09 00:36:34;;;;;;;4.35;3.10;;;16.30;99.90;;;;;;5041099;28;20715;-79
2022/08/09 00:39:01;;;;;;;3.70;3.40;;;16.30;99.90;;;;;;5050138;28;20197;-78
2022/08/09 00:41:31;;;;;;;4.45;3.72;;;16.30;99.90;;;;;;5053622;28;20287;-79
2022/08/09 00:43:57;;;;;;;5.97;4.30;;;16.30;99.90;;;;;;5049588;28;20285;-77
2022/08/09 00:46:26;;;;;;;4.80;4.25;;;16.20;99.90;;;;;;5051437;28;20289;-78
2022/08/09 00:48:53;;;;;;;6.32;4.03;;;16.30;99.90;;;;;;5051104;28;20628;-77
2022/08/09 00:51:20;;;;;;;7.47;4.68;;;16.20;99.90;;;;;;5049829;28;20311;-78
2022/08/09 00:53:47;;;;;;;8.93;3.95;;;16.20;99.90;;;;;;5048704;28;20315;-79
2022/08/09 00:56:14;;;;;;;6.50;4.30;;;16.20;99.90;;;;;;5060110;28;20208;-78
2022/08/09 00:58:44;;;;;;;6.13;4.03;;;16.20;99.90;;;;;;5052690;28;20201;-79
2022/08/09 01:01:14;;;;;;;5.45;4.53;;;16.20;99.90;;;;;;5051122;28;20272;-78
2022/08/09 01:03:48;;;;;;;4.97;4.55;;;16.20;99.90;;;;;;5050368;28;20263;-78
2022/08/09 01:06:22;;;;;;;10.02;4.55;;;16.10;99.90;;;;;;5050503;28;20599;-79
2022/08/09 01:09:04;;;;;;;6.30;4.05;;;16.10;99.90;;;;;;5066824;28;20235;-80
2022/08/09 01:11:42;;;;;;;4.28;3.88;;;16.10;99.90;;;;;;5058961;28;20212;-79
2022/08/09 01:14:14;;;;;;;4.93;4.28;;;16.10;99.90;;;;;;5049172;28;20330;-78
2022/08/09 01:16:44;;;;;;;8.40;4.45;;;16.00;99.90;;;;;;5043191;28;20285;-78
2022/08/09 01:19:22;;;;;;;11.70;4.70;;;16.00;99.90;;;;;;5055447;28;20235;-78
2022/08/09 01:21:58;;;;;;;5.47;4.07;;;16.00;99.90;;;;;;5050054;28;20203;-79
2022/08/09 01:24:40;;;;;;;6.45;4.55;;;16.00;99.90;;;;;;5050264;28;20226;-79
2022/08/09 01:27:10;;;;;;;5.05;3.83;;;16.00;99.90;;;;;;5044164;28;20204;-78
2022/08/09 01:29:44;;;;;;;4.82;3.65;;;15.90;99.90;;;;;;5054544;28;20593;-80
2022/08/09 01:32:15;;;;;;;8.27;3.90;;;15.90;99.90;;;;;;5047355;28;20219;-77
2022/08/09 01:34:44;;;;;;;4.43;3.83;;;15.90;99.90;;;;;;5051638;28;20202;-80
2022/08/09 01:37:15;;;;;;;8.70;5.82;;;16.00;99.90;;;;;;5060994;28;20261;-78
2022/08/09 01:39:46;;;;;;;5.22;4.53;;;15.90;99.90;;;;;;5053281;28;20231;-78
2022/08/09 01:42:16;;;;;;;8.57;4.88;;;15.90;99.90;;;;;;5067873;28;20202;-78
2022/08/09 01:44:44;;;;;;;6.72;3.60;;;15.90;99.90;;;;;;5060350;28;20202;-79
2022/08/09 01:47:12;;;;;;;4.65;4.25;;;15.80;99.90;;;;;;5050318;28;20817;-79
2022/08/09 01:49:41;;;;;;;10.00;4.85;;;15.80;99.90;;;;;;5053339;28;20685;-78
2022/08/09 01:52:13;;;;;;;7.35;5.00;;;15.70;99.90;;;;;;5048983;28;20267;-78
2022/08/09 01:54:45;;;;;;;9.05;5.90;;;15.70;99.90;;;;;;5054612;28;20198;-78
2022/08/09 01:57:17;;;;;;;6.82;5.72;;;15.70;99.90;;;;;;5036542;28;20197;-78
2022/08/09 01:59:46;;;;;;;7.03;5.20;;;15.70;99.90;;;;;;5041802;28;20233;-78
2022/08/09 02:02:15;;;;;;;13.45;5.97;;;15.70;99.90;;;;;;5048465;28;20543;-79
2022/08/09 02:04:43;;;;;;;9.43;5.40;;;15.60;99.90;;;;;;5043982;28;20220;-79
2022/08/09 02:07:19;;;;;;;8.77;5.65;;;15.60;99.90;;;;;;5047555;28;20747;-78
2022/08/09 02:09:49;;;;;;;7.93;5.15;;;15.60;99.90;;;;;;5040943;28;20232;-79
2022/08/09 02:12:19;;;;;;;5.32;4.63;;;15.60;99.90;;;;;;5056475;28;20243;-79
2022/08/09 02:14:50;;;;;;;8.38;5.55;;;15.60;99.90;;;;;;5050971;28;20218;-80
2022/08/09 02:17:23;;;;;;;7.28;4.95;;;15.60;99.90;;;;;;5048614;28;20243;-78
2022/08/09 02:19:50;;;;;;;6.78;5.65;;;15.60;99.90;;;;;;5059580;28;20231;-78
2022/08/09 02:22:25;;;;;;;6.55;4.57;;;15.60;99.90;;;;;;5053067;28;20561;-78
2022/08/09 02:24:57;;;;;;;11.52;7.07;;;15.60;99.90;;;;;;5046456;28;20653;-79
2022/08/09 02:27:28;;;;;;;6.80;4.82;;;15.50;99.90;;;;;;5045934;28;20229;-78
2022/08/09 02:29:57;;;;;;;5.35;4.65;;;15.50;99.90;;;;;;5052597;28;20195;-79
2022/08/09 02:32:28;;;;;;;8.40;4.32;;;15.50;99.90;;;;;;5046026;28;20774;-78
2022/08/09 02:35:02;;;;;;;5.95;5.35;;;15.50;99.90;;;;;;5048500;28;20625;-78
2022/08/09 02:37:31;;;;;;;6.28;5.22;;;15.50;99.90;;;;;;5051391;28;20542;-78
2022/08/09 02:40:05;;;;;;;6.80;4.85;;;15.50;99.90;;;;;;5048643;28;20259;-78
2022/08/09 02:42:35;;;;;;;7.82;5.47;;;15.50;99.90;;;;;;5034445;28;20209;-79
2022/08/09 02:45:06;;;;;;;5.47;4.47;;;15.50;99.90;;;;;;5048890;28;20379;-78
2022/08/09 02:47:36;;;;;;;7.28;5.75;;;15.40;99.90;;;;;;5047640;28;20208;-80
2022/08/09 02:50:06;;;;;;;8.38;5.10;;;15.40;99.90;;;;;;5068178;28;20282;-79
2022/08/09 02:52:39;;;;;;;7.43;5.35;;;15.40;99.90;;;;;;5040164;28;20235;-81
2022/08/09 02:55:08;;;;;;;6.95;6.07;;;15.40;99.90;;;;;;5052443;28;20242;-80
2022/08/09 02:57:38;;;;;;;6.22;4.90;;;15.40;99.90;;;;;;5054396;28;20195;-77
2022/08/09 03:00:09;;;;;;;6.38;4.97;;;15.40;99.90;;;;;;5067351;28;20219;-79
2022/08/09 03:02:38;;;;;;;8.30;5.18;;;15.30;99.90;;;;;;5045887;28;20263;-79
2022/08/09 03:05:08;;;;;;;9.05;5.10;;;15.30;99.90;;;;;;5035981;28;20249;-78
2022/08/09 03:07:36;;;;;;;6.30;5.68;;;15.30;99.90;;;;;;5048894;28;20295;-78
2022/08/09 03:10:04;;;;;;;5.82;4.68;;;15.30;99.90;;;;;;5035401;28;20572;-78
2022/08/09 03:12:32;;;;;;;7.95;5.80;;;15.30;99.90;;;;;;5051393;28;20310;-79
2022/08/09 03:15:01;;;;;;;8.65;5.90;;;15.20;99.90;;;;;;5044382;28;20207;-79
2022/08/09 03:17:29;;;;;;;5.90;5.07;;;15.20;99.90;;;;;;5048599;28;20290;-79
2022/08/09 03:20:00;;;;;;;5.85;4.85;;;15.20;99.90;;;;;;5048849;28;20227;-78
2022/08/09 03:22:29;;;;;;;8.05;5.25;;;15.20;99.90;;;;;;5052631;28;20275;-78
2022/08/09 03:24:56;;;;;;;5.93;4.40;;;15.20;99.90;;;;;;5049492;28;20321;-79
2022/08/09 03:27:24;;;;;;;5.93;4.95;;;15.20;99.90;;;;;;5066932;28;20200;-77
2022/08/09 03:29:53;;;;;;;5.13;4.60;;;15.20;99.90;;;;;;5054364;28;20646;-78
2022/08/09 03:32:22;;;;;;;8.05;4.85;;;15.10;99.90;;;;;;5044071;28;20740;-79
2022/08/09 03:34:49;;;;;;;9.52;6.72;;;15.10;99.90;;;;;;5050347;28;20290;-78
2022/08/09 03:37:17;;;;;;;7.82;5.60;;;15.10;99.90;;;;;;5044760;28;20610;-79
2022/08/09 03:39:44;;;;;;;7.13;5.40;;;15.10;99.90;;;;;;5052443;28;20285;-80
2022/08/09 03:42:11;;;;;;;6.25;4.72;;;15.00;99.90;;;;;;5044574;28;20224;-79
2022/08/09 03:44:38;;;;;;;7.50;5.90;;;15.00;99.90;;;;;;5053372;28;20253;-79
2022/08/09 03:47:05;;;;;;;6.60;5.20;;;15.10;99.90;;;;;;5046104;28;20231;-78
2022/08/09 03:49:35;;;;;;;8.13;5.40;;;15.00;99.90;;;;;;5051140;28;20217;-79
2022/08/09 03:52:04;;;;;;;7.30;5.53;;;15.00;99.90;;;;;;5051235;28;20219;-80
2022/08/09 03:54:35;;;;;;;5.95;5.22;;;15.00;99.90;;;;;;5047920;28;20219;-80
2022/08/09 03:57:05;;;;;;;6.80;5.70;;;15.00;99.90;;;;;;5048724;28;20294;-80
2022/08/09 03:59:33;;;;;;;6.15;5.55;;;15.00;99.90;;;;;;5049351;28;20216;-80
2022/08/09 04:02:00;;;;;;;6.68;5.43;;;15.00;99.90;;;;;;5059666;28;20227;-77
2022/08/09 04:04:29;;;;;;;14.27;7.47;;;15.00;99.90;;;;;;5062657;28;20275;-80
2022/08/09 04:06:57;;;;;;;11.98;5.13;;;15.00;99.90;;;;;;5060058;28;20278;-79
2022/08/09 04:09:24;;;;;;;7.32;5.15;;;15.00;99.90;;;;;;5058507;28;20188;-80
2022/08/09 04:12:23;;;;;;;7.13;5.93;;;15.00;99.90;;;;;;5043223;28;20227;-80
2022/08/09 04:14:50;;;;;;;10.20;6.20;;;15.10;99.90;;;;;;5048532;28;20263;-79
2022/08/09 04:17:17;;;;;;;7.25;5.20;;;15.10;99.90;;;;;;5055935;28;20212;-80
2022/08/09 04:19:45;;;;;;;7.30;5.95;;;15.10;99.90;;;;;;5057033;28;20215;-81
2022/08/09 04:22:13;;;;;;;8.02;4.82;;;15.10;99.90;;;;;;5057791;28;20239;-79
2022/08/09 04:24:40;;;;;;;6.60;5.95;;;15.20;99.90;;;;;;5067018;28;20196;-81
2022/08/09 04:27:07;;;;;;;8.70;5.60;;;15.20;99.90;;;;;;5059485;28;20215;-80
2022/08/09 04:29:34;;;;;;;11.80;7.03;;;15.30;99.90;;;;;;5068813;28;20215;-79
2022/08/09 04:32:01;;;;;;;6.53;5.65;;;15.30;99.90;;;;;;5065293;28;20268;-79
2022/08/09 04:34:32;;;;;;;9.23;6.90;;;15.30;99.90;;;;;;5070214;28;20283;-79
2022/08/09 04:36:59;;;;;;;6.70;5.55;;;15.40;99.90;;;;;;5061192;28;20623;-80
2022/08/09 04:39:30;;;;;;;6.40;5.32;;;15.50;99.90;;;;;;5052131;28;20191;-79
2022/08/09 04:41:57;;;;;;;9.63;6.97;;;15.50;99.90;;;;;;5065153;28;20230;-77
2022/08/09 04:44:24;;;;;;;6.50;5.70;;;15.60;99.90;;;;;;5060036;28;20351;-80
2022/08/09 04:46:51;;;;;;;6.95;6.25;;;15.70;99.90;;;;;;5051954;28;20238;-80
2022/08/09 04:49:18;;;;;;;6.38;5.38;;;15.70;99.90;;;;;;5069005;28;20196;-79
2022/08/09 04:51:45;;;;;;;7.53;6.13;;;15.80;99.90;;;;;;5066512;28;20258;-79
2022/08/09 04:54:12;;;;;;;7.57;6.82;;;15.80;99.90;;;;;;5056810;28;20243;-78
2022/08/09 04:56:41;;;;;;;8.20;5.43;;;15.90;99.90;;;;;;5053877;28;20557;-79
2022/08/09 04:59:08;;;;;;;8.27;5.25;;;16.10;99.90;;;;;;5057302;28;20197;-79
2022/08/09 05:01:35;;;;;;;5.82;5.20;;;16.60;99.90;;;;;;5040237;28;20281;-78
2022/08/09 05:04:02;;;;;;;7.77;5.07;;;17.30;99.90;;;;;;5049333;28;20223;-78
2022/08/09 05:06:29;;;;;;;6.57;6.00;;;18.30;99.90;;;;;;5044402;28;20526;-78
2022/08/09 05:08:56;;;;;;;5.30;4.03;;;19.30;99.90;;;;;;5045275;28;20922;-81
2022/08/09 05:11:25;;;;;;;4.80;4.40;;;20.20;99.90;;;;;;5042619;28;20478;-80
2022/08/09 05:13:53;;;;;;;6.90;4.57;;;21.20;99.90;;;;;;5042309;28;20488;-79
2022/08/09 05:16:20;;;;;;;7.80;3.13;;;22.20;99.90;;;;;;5049000;28;20475;-79
2022/08/09 05:18:47;;;;;;;8.40;4.10;;;22.90;99.90;;;;;;5067204;28;20517;-79
2022/08/09 05:21:14;;;;;;;4.80;3.80;;;23.50;99.90;;;;;;5042773;28;20516;-80
2022/08/09 05:23:41;;;;;;;5.50;3.60;;;24.20;99.90;;;;;;5048790;28;20977;-79
2022/08/09 05:26:09;;;;;;;5.73;4.10;;;24.80;98.80;;;;;;5037105;28;20877;-78
2022/08/09 05:28:36;;;;;;;10.50;3.70;;;25.30;97.00;;;;;;5041716;28;20942;-80
2022/08/09 05:31:04;;;;;;;8.30;4.80;;;25.90;95.60;;;;;;5050863;28;20462;-78
2022/08/09 05:33:32;;;;;;;5.43;4.20;;;26.30;93.80;;;;;;5047182;28;20490;-79
2022/08/09 05:35:59;;;;;;;5.00;3.90;;;26.80;92.60;;;;;;5046849;28;20438;-78
2022/08/09 05:38:31;;;;;;;5.00;3.80;;;27.10;91.70;;;;;;5053743;28;20462;-78
2022/08/09 05:40:58;;;;;;;7.87;3.10;;;27.30;91.00;;;;;;5043115;28;20527;-79
2022/08/09 05:43:28;;;;;;;3.77;3.27;;;27.50;90.70;;;;;;5044591;28;20945;-78
2022/08/09 05:45:55;;;;;;;2.90;2.60;;;27.80;89.80;;;;;;5049350;28;20439;-81
2022/08/09 05:48:24;;;;;;;4.83;3.10;;;28.10;89.00;;;;;;5051035;28;20481;-80
2022/08/09 05:50:51;;;;;;;6.17;3.40;;;28.20;88.00;;;;;;5052371;28;20450;-80
2022/08/09 05:53:18;;;;;;;3.63;2.80;;;28.30;86.70;;;;;;5047250;28;20514;-79
2022/08/09 05:55:59;;;;;;;3.17;2.87;;;28.40;86.20;;;;;;5054973;28;20439;-81
2022/08/09 05:58:27;;;;;;;5.87;3.80;;;28.90;85.50;;;;;;5056647;28;20517;-78
2022/08/09 06:00:56;;;;;;;2.90;2.57;;;29.20;83.70;;;;;;5045852;28;20521;-77
2022/08/09 06:03:24;;;;;;;4.50;3.23;;;29.20;83.80;;;;;;5043192;28;20502;-79
2022/08/09 06:05:51;;;;;;;6.30;3.07;;;29.20;82.90;;;;;;5039737;28;20484;-81
2022/08/09 06:08:18;;;;;;;6.30;3.13;;;29.40;82.50;;;;;;5046082;28;20526;-79
2022/08/09 06:10:45;;;;;;;4.90;2.60;;;29.60;81.90;;;;;;5044735;28;20533;-79
2022/08/09 06:13:13;;;;;;;3.90;2.37;;;29.60;81.30;;;;;;5038878;28;20491;-77
2022/08/09 06:15:40;;;;;;;2.40;1.60;;;29.90;80.70;;;;;;5050066;28;20482;-80
2022/08/09 06:18:08;;;;;;;4.13;1.77;;;29.80;79.80;;;;;;5042884;28;20469;-80
2022/08/09 06:20:36;;;;;;;3.40;2.77;;;30.20;79.90;;;;;;5036179;28;20538;-80
2022/08/09 06:23:03;;;;;;;4.00;1.70;;;30.30;79.00;;;;;;5042164;28;20453;-79
2022/08/09 06:25:30;;;;;;;4.37;2.40;;;30.30;78.90;;;;;;5051536;28;20438;-79
2022/08/09 06:27:57;;;;;;;3.30;2.00;;;30.40;78.40;;;;;;5052680;28;20884;-76
2022/08/09 06:30:24;;;;;;;3.60;2.00;;;30.50;77.70;;;;;;5044638;28;20530;-76
2022/08/09 06:32:51;;;;;;;3.23;1.97;;;30.60;77.20;;;;;;5047306;28;20485;-76
2022/08/09 06:35:18;;;;;;;2.30;1.80;;;30.80;77.00;;;;;;5052236;28;20457;-74
2022/08/09 06:37:47;;;;;;;2.67;1.77;;;30.80;76.70;;;;;;5045668;28;20453;-76
2022/08/09 06:40:14;;;;;;;5.13;2.00;;;30.90;77.00;;;;;;5051804;28;20454;-74
2022/08/09 06:42:41;;;;;;;2.53;1.67;;;31.20;76.00;;;;;;5053608;28;20458;-75
2022/08/09 06:45:09;;;;;;;18.30;16.37;;;31.40;75.60;;;;;;5046288;28;20485;-75
2022/08/09 06:47:40;;;;;;;4.23;2.87;;;31.60;75.10;;;;;;5047065;28;20516;-76
2022/08/09 06:50:08;;;;;;;17.83;14.13;;;31.70;74.30;;;;;;5049797;28;20458;-75
2022/08/09 06:52:36;;;;;;;5.90;2.63;;;31.80;74.30;;;;;;5055223;28;20474;-76
2022/08/09 06:55:05;;;;;;;2.53;2.00;;;32.00;73.40;;;;;;5044053;28;20450;-78
2022/08/09 06:57:31;;;;;;;3.23;2.60;;;32.00;72.90;;;;;;5043789;28;20442;-79
2022/08/09 06:59:59;;;;;;;4.83;2.90;;;32.20;72.80;;;;;;5041308;28;20496;-78
2022/08/09 07:02:26;;;;;;;45.97;40.27;;;32.10;72.40;;;;;;5041279;28;20443;-77
2022/08/09 07:04:52;;;;;;;4.13;3.17;;;31.90;72.80;;;;;;5044393;28;20469;-78
2022/08/09 07:07:19;;;;;;;10.13;7.70;;;31.90;72.50;;;;;;5035572;28;20446;-78
2022/08/09 07:09:46;;;;;;;2.80;1.83;;;31.70;72.90;;;;;;5041388;28;20454;-79
2022/08/09 07:12:15;;;;;;;18.97;12.73;;;32.10;72.80;;;;;;5039349;28;20525;-76
2022/08/09 07:14:42;;;;;;;4.90;4.40;;;32.40;71.70;;;;;;5047184;28;20554;-78
2022/08/09 07:17:09;;;;;;;15.23;12.13;;;32.70;71.40;;;;;;5052704;28;20525;-79
2022/08/09 07:19:35;;;;;;;5.00;4.50;;;32.70;70.70;;;;;;5049044;28;20454;-79
2022/08/09 07:22:02;;;;;;;2.37;1.33;;;32.80;70.50;;;;;;5040919;28;20449;-80
2022/08/09 07:24:30;;;;;;;11.00;9.63;;;32.90;70.10;;;;;;5044920;28;20494;-79
2022/08/09 07:26:57;;;;;;;3.10;1.90;;;33.10;69.90;;;;;;5052573;28;20430;-77
2022/08/09 07:29:26;;;;;;;3.00;2.67;;;33.10;69.10;;;;;;5047053;28;20449;-77
2022/08/09 07:31:54;;;;;;;4.97;2.00;;;32.60;69.30;;;;;;5045641;28;20513;-74
2022/08/09 07:34:21;;;;;;;3.37;1.87;;;32.60;70.50;;;;;;5043650;28;20530;-77
2022/08/09 07:36:48;;;;;;;4.57;2.17;;;32.50;70.70;;;;;;5045818;28;20489;-76
2022/08/09 07:39:15;;;;;;;3.70;2.90;;;32.60;70.10;;;;;;5040399;28;20447;-77
2022/08/09 07:41:42;;;;;;;3.80;2.70;;;32.80;70.10;;;;;;5037983;28;20517;-76
2022/08/09 07:44:09;;;;;;;4.03;1.83;;;32.60;70.10;;;;;;5040822;28;20541;-82
2022/08/09 07:46:38;;;;;;;2.30;1.60;;;32.50;69.50;;;;;;5046334;28;20456;-78
2022/08/09 07:49:05;;;;;;;2.00;1.60;;;32.90;69.30;;;;;;5037787;28;20542;-80
2022/08/09 07:51:32;;;;;;;5.63;4.80;;;33.20;68.60;;;;;;5051343;28;20450;-76
2022/08/09 07:53:59;;;;;;;10.23;6.67;;;33.70;66.60;;;;;;5048040;28;20529;-74
2022/08/09 07:56:26;;;;;;;3.93;1.80;;;34.00;66.70;;;;;;5043026;28;20538;-75
2022/08/09 07:58:54;;;;;;;3.10;1.93;;;34.50;65.40;;;;;;5047701;28;20456;-76
2022/08/09 08:01:21;;;;;;;8.67;3.97;;;34.30;64.70;;;;;;5043513;28;20464;-77
2022/08/09 08:03:49;;;;;;;17.20;13.70;;;34.60;65.10;;;;;;5044364;28;20478;-78
2022/08/09 08:06:16;;;;;;;3.27;1.97;;;34.50;65.10;;;;;;5042357;28;20461;-74
2022/08/09 08:08:44;;;;;;;2.37;1.70;;;34.70;64.40;;;;;;5047837;28;20438;-76
2022/08/09 08:11:11;;;;;;;3.13;2.50;;;34.80;64.00;;;;;;5044525;28;20481;-77
2022/08/09 08:13:38;;;;;;;3.60;1.63;;;34.70;64.20;;;;;;5040062;28;20482;-73
2022/08/09 08:16:06;;;;;;;4.13;2.03;;;34.80;62.70;;;;;;5045475;28;20473;-76
2022/08/09 08:18:32;;;;;;;2.07;1.70;;;34.60;63.10;;;;;;5042558;28;20455;-74
2022/08/09 08:21:01;;;;;;;2.90;1.63;;;34.30;63.60;;;;;;5034525;28;20451;-76
2022/08/09 08:23:28;;;;;;;4.43;1.60;;;33.60;64.30;;;;;;5035969;28;20564;-76
2022/08/09 08:25:55;;;;;;;8.63;2.13;;;33.70;64.80;;;;;;5034205;28;20502;-74
2022/08/09 08:28:22;;;;;;;2.00;1.40;;;33.90;64.10;;;;;;5038433;28;20864;-75
2022/08/09 08:30:49;;;;;;;5.13;2.63;;;33.90;62.80;;;;;;5044314;28;20484;-75
2022/08/09 08:33:17;;;;;;;4.30;2.27;;;33.30;62.80;;;;;;5042756;28;20502;-75
2022/08/09 08:35:44;;;;;;;3.47;1.50;;;33.10;63.90;;;;;;5049708;28;20465;-76
2022/08/09 08:38:13;;;;;;;2.70;1.13;;;33.10;64.90;;;;;;5043692;28;20461;-76
2022/08/09 08:40:41;;;;;;;4.80;4.30;;;33.80;64.00;;;;;;5055175;28;20450;-74
2022/08/09 08:43:10;;;;;;;3.27;2.50;;;34.30;63.40;;;;;;5061187;28;20481;-76
2022/08/09 08:45:42;;;;;;;5.17;1.77;;;34.50;61.50;;;;;;5042302;28;20525;-75
2022/08/09 08:48:10;;;;;;;2.73;1.40;;;34.60;61.50;;;;;;5047800;28;20452;-76
2022/08/09 08:50:38;;;;;;;3.33;1.70;;;34.70;60.50;;;;;;5038522;28;20450;-76
2022/08/09 08:53:05;;;;;;;3.47;1.67;;;34.60;61.50;;;;;;5043189;28;20565;-75
2022/08/09 08:55:33;;;;;;;5.63;1.50;;;34.70;61.20;;;;;;5046565;28;20555;-74
2022/08/09 08:58:00;;;;;;;3.73;1.57;;;35.10;60.80;;;;;;5047027;28;20449;-76
2022/08/09 09:00:27;;;;;;;2.23;1.60;;;35.50;60.00;;;;;;5048782;28;20967;-75
2022/08/09 09:02:58;;;;;;;3.03;1.60;;;35.70;58.90;;;;;;5045282;28;20451;-76
2022/08/09 09:05:26;;;;;;;3.30;1.27;;;35.40;59.70;;;;;;5046216;28;20452;-74
2022/08/09 09:07:54;;;;;;;4.77;1.77;;;35.40;59.80;;;;;;5045621;28;20435;-75
2022/08/09 09:10:23;;;;;;;1.90;1.40;;;35.40;59.20;;;;;;5046210;28;20546;-76
2022/08/09 09:12:53;;;;;;;3.20;2.60;;;35.50;59.60;;;;;;5049380;28;20487;-75
2022/08/09 09:15:21;;;;;;;3.60;1.37;;;35.60;58.50;;;;;;5045026;28;20490;-75
2022/08/09 09:17:48;;;;;;;1.57;1.00;;;35.10;59.20;;;;;;5047879;28;20446;-74
2022/08/09 09:20:15;;;;;;;2.90;2.17;;;35.00;59.90;;;;;;5049565;28;20450;-74
2022/08/09 09:22:54;;;;;;;4.83;2.20;;;34.40;60.20;;;;;;5053943;28;20904;-75
2022/08/09 09:25:32;;;;;;;5.77;3.37;;;34.90;60.30;;;;;;5047750;28;20442;-74
2022/08/09 09:28:02;;;;;;;3.90;1.60;;;34.90;59.50;;;;;;5045671;28;20442;-76
2022/08/09 09:30:29;;;;;;;2.03;1.23;;;34.70;59.80;;;;;;5048153;28;20439;-76
2022/08/09 09:33:09;;;;;;;3.10;1.50;;;34.50;60.20;;;;;;5045708;28;20465;-74
2022/08/09 09:35:52;;;;;;;2.67;1.10;;;34.00;61.20;;;;;;5047097;28;20478;-75
2022/08/09 09:38:22;;;;;;;2.10;1.10;;;34.10;61.30;;;;;;5048363;28;20859;-74
2022/08/09 09:40:49;;;;;;;3.97;2.10;;;33.90;61.60;;;;;;5044770;28;20442;-75
2022/08/09 09:43:21;;;;;;;2.57;1.30;;;34.00;60.90;;;;;;5043872;28;20588;-79
2022/08/09 09:45:51;;;;;;;5.70;1.83;;;33.70;62.10;;;;;;5043805;28;20454;-77
2022/08/09 09:48:20;;;;;;;1.93;1.47;;;33.50;62.40;;;;;;5047523;28;20464;-77
2022/08/09 09:50:48;;;;;;;4.53;1.90;;;33.30;62.20;;;;;;5046578;28;20504;-77
2022/08/09 09:53:16;;;;;;;3.70;1.33;;;33.00;62.80;;;;;;5043786;28;21011;-76
2022/08/09 09:55:58;;;;;;;3.00;1.27;;;33.00;63.50;;;;;;5048662;28;20520;-75
2022/08/09 09:58:44;;;;;;;4.33;1.17;;;33.10;62.60;;;;;;5051064;28;20446;-76
2022/08/09 10:01:18;;;;;;;3.60;1.50;;;32.90;63.70;;;;;;5045521;28;20484;-74
2022/08/09 10:03:46;;;;;;;2.97;1.23;;;32.60;64.20;;;;;;5051720;28;20540;-75
2022/08/09 10:06:14;;;;;;;1.93;1.17;;;33.00;63.60;;;;;;5048751;28;20450;-77
2022/08/09 10:08:42;;;;;;;2.23;1.17;;;33.40;63.00;;;;;;5046769;28;20474;-78
2022/08/09 10:11:20;;;;;;;4.30;1.40;;;34.00;61.60;;;;;;5049359;28;20450;-76
2022/08/09 10:13:49;;;;;;;3.57;1.43;;;34.30;60.10;;;;;;5047922;28;20478;-76
2022/08/09 10:16:26;;;;;;;1.80;1.63;;;34.20;59.90;;;;;;5054633;28;20538;-78
2022/08/09 10:18:54;;;;;;;2.23;1.13;;;33.70;60.00;;;;;;5048716;28;20469;-77
2022/08/09 10:21:23;;;;;;;4.13;1.47;;;33.30;61.50;;;;;;5046230;28;20538;-76
2022/08/09 10:23:50;;;;;;;2.50;1.50;;;33.40;62.00;;;;;;5054441;28;20458;-75
2022/08/09 10:26:21;;;;;;;4.33;1.40;;;33.70;61.50;;;;;;5053486;28;20486;-74
2022/08/09 10:28:50;;;;;;;2.37;1.33;;;34.00;61.80;;;;;;5046110;28;20636;-78
2022/08/09 10:31:17;;;;;;;2.10;1.87;;;34.00;60.30;;;;;;5051350;28;21103;-75
2022/08/09 10:33:44;;;;;;;2.97;0.93;;;33.80;61.80;;;;;;5051960;28;20534;-78
2022/08/09 10:36:13;;;;;;;3.50;1.40;;;34.00;61.00;;;;;;5047152;28;20462;-77
2022/08/09 10:38:42;;;;;;;1.87;1.10;;;34.00;60.00;;;;;;5055875;28;20450;-74
2022/08/09 10:41:09;;;;;;;1.80;1.03;;;34.20;59.40;;;;;;5058243;28;20442;-72
2022/08/09 10:43:37;;;;;;;4.13;1.43;;;33.60;59.30;;;;;;5056358;28;20497;-76
2022/08/09 10:46:37;;;;;;;2.20;1.10;;;32.80;59.80;;;;;;5053653;28;20541;-76
2022/08/09 10:49:13;;;;;;;1.50;1.00;;;31.70;62.30;;;;;;5047011;28;20470;-77
2022/08/09 10:51:54;;;;;;;2.17;1.13;;;31.00;65.50;;;;;;5050894;28;20525;-75
2022/08/09 10:54:23;;;;;;;3.00;1.30;;;30.60;66.60;;;;;;5046103;28;20493;-75
2022/08/09 10:57:08;;;;;;;5.93;1.50;;;30.40;66.70;;;;;;5044212;28;20542;-74
2022/08/09 10:59:36;;;;;;;2.13;1.00;;;30.10;66.30;;;;;;5053428;28;20439;-76
2022/08/09 11:02:06;;;;;;;1.60;1.00;;;29.70;66.10;;;;;;5058558;28;20446;-75
2022/08/09 11:04:36;;;;;;;1.57;1.10;;;29.50;69.50;;;;;;5044849;28;20475;-76
2022/08/09 11:07:26;;;;;;;2.53;1.20;;;29.50;69.30;;;;;;5047502;28;20536;-74
2022/08/09 11:09:53;;;;;;;2.10;1.30;;;29.20;68.30;;;;;;5040764;28;20937;-76
2022/08/09 11:12:22;;;;;;;2.50;1.33;;;29.10;68.60;;;;;;5044717;28;20525;-75
2022/08/09 11:14:53;;;;;;;2.50;0.70;;;28.90;68.70;;;;;;5052285;28;20582;-74
2022/08/09 11:17:54;;;;;;;1.77;1.20;;;28.80;69.10;;;;;;5048661;28;20921;-76
2022/08/09 11:20:51;;;;;;;1.30;1.00;;;28.40;69.30;;;;;;5043225;28;20446;-75
2022/08/09 11:23:18;;;;;;;1.97;1.30;;;28.20;70.90;;;;;;5016188;28;20458;-76
2022/08/09 11:25:47;;;;;;;2.33;1.30;;;28.30;71.40;;;;;;5048146;28;20450;-75
2022/08/09 11:28:35;;;;;;;2.80;1.27;;;28.20;71.00;;;;;;5042241;28;20446;-74
2022/08/09 11:31:03;;;;;;;2.20;1.77;;;28.10;71.80;;;;;;5045515;28;20470;-75
2022/08/09 11:33:43;;;;;;;2.70;2.10;;;28.20;72.10;;;;;;5043372;28;20548;-76
2022/08/09 11:36:10;;;;;;;4.73;1.50;;;28.30;72.20;;;;;;5044104;28;20488;-75
2022/08/09 11:38:37;;;;;;;2.70;2.00;;;28.30;72.00;;;;;;5042275;28;20925;-75
2022/08/09 11:41:27;;;;;;;3.73;1.20;;;28.10;71.50;;;;;;5044861;28;20481;-75
2022/08/09 11:43:54;;;;;;;1.87;1.10;;;28.00;72.20;;;;;;5045133;28;20489;-75
2022/08/09 11:46:21;;;;;;;1.40;1.30;;;28.10;72.60;;;;;;5052859;28;20927;-76
2022/08/09 11:48:52;;;;;;;1.70;1.20;;;28.00;72.80;;;;;;5041289;28;20932;-74
2022/08/09 11:51:21;;;;;;;2.77;1.63;;;27.90;72.20;;;;;;5046611;28;20539;-75
2022/08/09 11:53:49;;;;;;;2.70;1.20;;;27.70;73.20;;;;;;5052526;28;20919;-75
2022/08/09 11:56:26;;;;;;;2.23;1.23;;;27.70;74.30;;;;;;5051359;28;20494;-77
2022/08/09 11:58:54;;;;;;;3.50;1.30;;;27.80;74.10;;;;;;5047886;28;20438;-77
2022/08/09 12:01:32;;;;;;;1.20;1.03;;;27.90;73.40;;;;;;5045925;28;20483;-76
2022/08/09 12:04:02;;;;;;;2.10;1.17;;;27.90;72.80;;;;;;5044655;28;20465;-76
2022/08/09 12:06:31;;;;;;;6.07;1.63;;;27.60;72.70;;;;;;5049417;28;20474;-75
2022/08/09 12:08:59;;;;;;;2.43;1.20;;;27.40;74.20;;;;;;5048660;28;20500;-75
2022/08/09 12:11:28;;;;;;;2.03;1.47;;;27.20;75.30;;;;;;5049927;28;20449;-74
2022/08/09 12:13:57;;;;;;;2.70;1.53;;;27.20;75.10;;;;;;5048161;28;20462;-74
2022/08/09 12:16:27;;;;;;;1.77;1.20;;;27.10;75.70;;;;;;5056508;28;21003;-76
2022/08/09 12:18:54;;;;;;;1.57;1.40;;;26.90;76.40;;;;;;5051338;28;20438;-75
2022/08/09 12:21:27;;;;;;;1.93;1.23;;;27.00;77.00;;;;;;5045850;28;20497;-74
2022/08/09 12:23:56;;;;;;;1.97;1.13;;;27.20;77.10;;;;;;5047483;28;21024;-76
2022/08/09 12:26:23;;;;;;;3.20;1.27;;;27.30;76.50;;;;;;5049992;28;20909;-75
2022/08/09 12:28:53;;;;;;;3.00;1.27;;;27.30;77.00;;;;;;5054264;28;20903;-75
2022/08/09 12:31:25;;;;;;;1.60;1.10;;;27.40;76.40;;;;;;5052092;28;20441;-74
2022/08/09 12:33:52;;;;;;;2.50;0.80;;;27.50;75.90;;;;;;5044664;28;20550;-76
2022/08/09 12:36:22;;;;;;;1.37;0.90;;;27.30;76.00;;;;;;5048971;28;20470;-74
2022/08/09 12:38:50;;;;;;;5.20;1.77;;;27.40;75.40;;;;;;5049694;28;20865;-72
2022/08/09 12:41:25;;;;;;;2.07;1.10;;;27.20;76.10;;;;;;5054597;28;20879;-75
2022/08/09 12:43:52;;;;;;;2.13;1.20;;;27.10;76.00;;;;;;5051003;28;20541;-74
2022/08/09 12:46:20;;;;;;;2.97;1.13;;;27.00;76.90;;;;;;5046783;28;20453;-76
2022/08/09 12:48:49;;;;;;;3.07;1.40;;;27.10;77.00;;;;;;5052018;28;20453;-76
2022/08/09 12:51:18;;;;;;;2.23;1.30;;;27.20;77.30;;;;;;5047573;28;20450;-76
2022/08/09 12:53:46;;;;;;;1.87;1.10;;;27.40;76.60;;;;;;5062041;28;20508;-77
2022/08/09 12:56:17;;;;;;;2.63;1.30;;;27.40;76.10;;;;;;5055148;28;20480;-77
2022/08/09 12:59:03;;;;;;;2.90;1.00;;;27.50;75.90;;;;;;5043231;28;20451;-77